sensor_id;sensor_type;location;lat;lon;timestamp;P1;durP1;ratioP1;P2;durP2;ratioP2
75052;SDS011;63630;50.142;14.076;2022-11-02T00:01:23;12.50;;;6.10;;
75052;SDS011;63630;50.142;14.076;2022-11-02T00:03:53;9.80;;;5.22;;
75052;SDS011;63630;50.142;14.076;2022-11-02T00:06:18;15.10;;;5.85;;
75052;SDS011;63630;50.142;14.076;2022-11-02T00:08:43;10.70;;;5.32;;
75052;SDS011;63630;50.142;14.076;2022-11-02T00:11:09;12.60;;;5.90;;
75052;SDS011;63630;50.142;14.076;2022-11-02T00:13:37;9.50;;;5.57;;
75052;SDS011;63630;50.142;14.076;2022-11-02T00:16:06;9.00;;;5.55;;
75052;SDS011;63630;50.142;14.076;2022-11-02T00:18:35;10.68;;;5.75;;
75052;SDS011;63630;50.142;14.076;2022-11-02T00:21:04;8.93;;;5.30;;
75052;SDS011;63630;50.142;14.076;2022-11-02T00:23:29;9.27;;;5.43;;
75052;SDS011;63630;50.142;14.076;2022-11-02T00:25:56;9.45;;;5.20;;
75052;SDS011;63630;50.142;14.076;2022-11-02T00:28:22;9.95;;;5.05;;
75052;SDS011;63630;50.142;14.076;2022-11-02T00:30:52;13.25;;;5.70;;
75052;SDS011;63630;50.142;14.076;2022-11-02T00:33:20;10.10;;;5.00;;
75052;SDS011;63630;50.142;14.076;2022-11-02T00:35:45;9.60;;;5.47;;
75052;SDS011;63630;50.142;14.076;2022-11-02T00:38:10;10.90;;;5.53;;
75052;SDS011;63630;50.142;14.076;2022-11-02T00:40:36;10.80;;;5.13;;
75052;SDS011;63630;50.142;14.076;2022-11-02T00:43:02;8.38;;;5.18;;
75052;SDS011;63630;50.142;14.076;2022-11-02T00:45:29;12.15;;;5.43;;
75052;SDS011;63630;50.142;14.076;2022-11-02T00:47:57;10.52;;;5.60;;
75052;SDS011;63630;50.142;14.076;2022-11-02T00:50:22;7.50;;;5.10;;
75052;SDS011;63630;50.142;14.076;2022-11-02T00:52:48;10.53;;;5.47;;
75052;SDS011;63630;50.142;14.076;2022-11-02T00:55:13;10.10;;;5.43;;
75052;SDS011;63630;50.142;14.076;2022-11-02T00:57:41;14.50;;;6.20;;
75052;SDS011;63630;50.142;14.076;2022-11-02T01:00:09;11.50;;;5.18;;
75052;SDS011;63630;50.142;14.076;2022-11-02T01:02:36;8.52;;;5.30;;
75052;SDS011;63630;50.142;14.076;2022-11-02T01:05:02;9.30;;;5.55;;
75052;SDS011;63630;50.142;14.076;2022-11-02T01:07:30;12.13;;;5.38;;
75052;SDS011;63630;50.142;14.076;2022-11-02T01:09:58;9.45;;;5.15;;
75052;SDS011;63630;50.142;14.076;2022-11-02T01:12:24;7.33;;;5.13;;
75052;SDS011;63630;50.142;14.076;2022-11-02T01:14:52;10.05;;;5.68;;
75052;SDS011;63630;50.142;14.076;2022-11-02T01:17:18;9.68;;;5.40;;
75052;SDS011;63630;50.142;14.076;2022-11-02T01:19:45;11.98;;;5.15;;
75052;SDS011;63630;50.142;14.076;2022-11-02T01:22:13;8.65;;;5.35;;
75052;SDS011;63630;50.142;14.076;2022-11-02T01:24:38;10.43;;;5.25;;
75052;SDS011;63630;50.142;14.076;2022-11-02T01:27:06;7.83;;;5.13;;
75052;SDS011;63630;50.142;14.076;2022-11-02T01:29:31;11.45;;;5.10;;
75052;SDS011;63630;50.142;14.076;2022-11-02T01:31:56;9.45;;;5.15;;
75052;SDS011;63630;50.142;14.076;2022-11-02T01:34:22;11.27;;;5.30;;
75052;SDS011;63630;50.142;14.076;2022-11-02T01:36:47;13.02;;;5.28;;
75052;SDS011;63630;50.142;14.076;2022-11-02T01:39:16;10.30;;;5.60;;
75052;SDS011;63630;50.142;14.076;2022-11-02T01:41:41;11.57;;;5.57;;
75052;SDS011;63630;50.142;14.076;2022-11-02T01:44:24;10.60;;;5.03;;
75052;SDS011;63630;50.142;14.076;2022-11-02T01:46:58;11.77;;;5.03;;
75052;SDS011;63630;50.142;14.076;2022-11-02T01:49:24;10.52;;;5.00;;
75052;SDS011;63630;50.142;14.076;2022-11-02T01:51:55;7.78;;;4.05;;
75052;SDS011;63630;50.142;14.076;2022-11-02T01:54:24;9.95;;;5.47;;
75052;SDS011;63630;50.142;14.076;2022-11-02T01:56:57;9.00;;;5.20;;
75052;SDS011;63630;50.142;14.076;2022-11-02T01:59:29;17.08;;;5.82;;
75052;SDS011;63630;50.142;14.076;2022-11-02T02:01:59;12.75;;;6.32;;
75052;SDS011;63630;50.142;14.076;2022-11-02T02:04:28;18.63;;;6.35;;
75052;SDS011;63630;50.142;14.076;2022-11-02T02:06:53;14.93;;;5.75;;
75052;SDS011;63630;50.142;14.076;2022-11-02T02:09:24;14.15;;;5.45;;
75052;SDS011;63630;50.142;14.076;2022-11-02T02:11:54;12.02;;;5.70;;
75052;SDS011;63630;50.142;14.076;2022-11-02T02:14:22;8.93;;;5.28;;
75052;SDS011;63630;50.142;14.076;2022-11-02T02:22:35;13.10;;;5.93;;
75052;SDS011;63630;50.142;14.076;2022-11-02T02:30:45;9.70;;;5.72;;
75052;SDS011;63630;50.142;14.076;2022-11-02T02:35:56;10.10;;;6.18;;
75052;SDS011;63630;50.142;14.076;2022-11-02T02:38:37;9.60;;;5.03;;
75052;SDS011;63630;50.142;14.076;2022-11-02T02:41:13;10.30;;;5.30;;
75052;SDS011;63630;50.142;14.076;2022-11-02T02:43:51;13.73;;;5.70;;
75052;SDS011;63630;50.142;14.076;2022-11-02T02:49:06;14.63;;;5.72;;
75052;SDS011;63630;50.142;14.076;2022-11-02T02:51:39;12.68;;;5.40;;
75052;SDS011;63630;50.142;14.076;2022-11-02T02:54:11;17.60;;;6.13;;
75052;SDS011;63630;50.142;14.076;2022-11-02T02:56:48;13.90;;;5.30;;
75052;SDS011;63630;50.142;14.076;2022-11-02T02:59:28;13.05;;;5.32;;
75052;SDS011;63630;50.142;14.076;2022-11-02T03:01:56;12.32;;;5.65;;
75052;SDS011;63630;50.142;14.076;2022-11-02T03:04:24;13.13;;;4.63;;
75052;SDS011;63630;50.142;14.076;2022-11-02T03:06:53;12.40;;;5.05;;
75052;SDS011;63630;50.142;14.076;2022-11-02T03:09:31;11.25;;;5.45;;
75052;SDS011;63630;50.142;14.076;2022-11-02T03:12:28;12.05;;;5.13;;
75052;SDS011;63630;50.142;14.076;2022-11-02T03:15:15;8.35;;;4.97;;
75052;SDS011;63630;50.142;14.076;2022-11-02T03:17:54;12.20;;;5.13;;
75052;SDS011;63630;50.142;14.076;2022-11-02T03:24:00;9.65;;;4.63;;
75052;SDS011;63630;50.142;14.076;2022-11-02T03:26:06;9.00;;;5.07;;
75052;SDS011;63630;50.142;14.076;2022-11-02T03:28:52;11.23;;;4.68;;
75052;SDS011;63630;50.142;14.076;2022-11-02T03:31:35;8.38;;;4.60;;
75052;SDS011;63630;50.142;14.076;2022-11-02T03:36:57;12.63;;;4.60;;
75052;SDS011;63630;50.142;14.076;2022-11-02T03:39:38;8.50;;;4.47;;
75052;SDS011;63630;50.142;14.076;2022-11-02T03:42:12;8.57;;;4.65;;
75052;SDS011;63630;50.142;14.076;2022-11-02T03:44:44;8.80;;;4.93;;
75052;SDS011;63630;50.142;14.076;2022-11-02T03:47:13;8.27;;;4.82;;
75052;SDS011;63630;50.142;14.076;2022-11-02T03:49:41;8.10;;;4.65;;
75052;SDS011;63630;50.142;14.076;2022-11-02T03:52:09;7.72;;;4.75;;
75052;SDS011;63630;50.142;14.076;2022-11-02T03:54:41;8.10;;;4.43;;
75052;SDS011;63630;50.142;14.076;2022-11-02T03:57:16;7.32;;;4.18;;
75052;SDS011;63630;50.142;14.076;2022-11-02T03:59:45;6.10;;;4.80;;
75052;SDS011;63630;50.142;14.076;2022-11-02T04:02:11;9.45;;;4.85;;
75052;SDS011;63630;50.142;14.076;2022-11-02T04:04:50;8.32;;;4.20;;
75052;SDS011;63630;50.142;14.076;2022-11-02T04:07:21;9.88;;;5.45;;
75052;SDS011;63630;50.142;14.076;2022-11-02T04:09:53;7.35;;;4.53;;
75052;SDS011;63630;50.142;14.076;2022-11-02T04:12:18;8.87;;;4.87;;
75052;SDS011;63630;50.142;14.076;2022-11-02T04:15:02;7.97;;;4.30;;
75052;SDS011;63630;50.142;14.076;2022-11-02T04:17:28;6.13;;;4.07;;
75052;SDS011;63630;50.142;14.076;2022-11-02T04:20:12;10.00;;;4.68;;
75052;SDS011;63630;50.142;14.076;2022-11-02T04:22:37;7.90;;;4.63;;
75052;SDS011;63630;50.142;14.076;2022-11-02T04:25:21;8.65;;;4.45;;
75052;SDS011;63630;50.142;14.076;2022-11-02T04:27:50;7.43;;;4.43;;
75052;SDS011;63630;50.142;14.076;2022-11-02T04:30:19;7.38;;;4.10;;
75052;SDS011;63630;50.142;14.076;2022-11-02T04:32:47;6.50;;;4.00;;
75052;SDS011;63630;50.142;14.076;2022-11-02T04:35:33;7.07;;;4.07;;
75052;SDS011;63630;50.142;14.076;2022-11-02T04:38:01;9.18;;;4.45;;
75052;SDS011;63630;50.142;14.076;2022-11-02T04:40:45;7.15;;;4.53;;
75052;SDS011;63630;50.142;14.076;2022-11-02T04:43:10;7.07;;;4.23;;
75052;SDS011;63630;50.142;14.076;2022-11-02T04:45:40;9.10;;;4.40;;
75052;SDS011;63630;50.142;14.076;2022-11-02T04:48:06;8.27;;;4.40;;
75052;SDS011;63630;50.142;14.076;2022-11-02T04:50:33;6.97;;;4.45;;
75052;SDS011;63630;50.142;14.076;2022-11-02T04:53:00;9.18;;;4.28;;
75052;SDS011;63630;50.142;14.076;2022-11-02T04:55:26;8.00;;;4.63;;
75052;SDS011;63630;50.142;14.076;2022-11-02T04:57:54;7.75;;;4.50;;
75052;SDS011;63630;50.142;14.076;2022-11-02T05:00:20;7.22;;;4.32;;
75052;SDS011;63630;50.142;14.076;2022-11-02T05:02:46;8.27;;;4.45;;
75052;SDS011;63630;50.142;14.076;2022-11-02T05:05:13;7.90;;;4.50;;
75052;SDS011;63630;50.142;14.076;2022-11-02T05:07:39;7.78;;;4.35;;
75052;SDS011;63630;50.142;14.076;2022-11-02T05:10:04;10.70;;;5.07;;
75052;SDS011;63630;50.142;14.076;2022-11-02T05:12:30;9.23;;;4.70;;
75052;SDS011;63630;50.142;14.076;2022-11-02T05:14:55;8.95;;;4.80;;
75052;SDS011;63630;50.142;14.076;2022-11-02T05:17:22;7.85;;;4.35;;
75052;SDS011;63630;50.142;14.076;2022-11-02T05:19:48;7.83;;;4.40;;
75052;SDS011;63630;50.142;14.076;2022-11-02T05:22:13;6.33;;;4.37;;
75052;SDS011;63630;50.142;14.076;2022-11-02T05:24:38;7.40;;;4.17;;
75052;SDS011;63630;50.142;14.076;2022-11-02T05:27:04;7.50;;;4.10;;
75052;SDS011;63630;50.142;14.076;2022-11-02T05:29:29;6.35;;;4.40;;
75052;SDS011;63630;50.142;14.076;2022-11-02T05:31:57;7.50;;;4.35;;
75052;SDS011;63630;50.142;14.076;2022-11-02T05:34:22;6.10;;;4.00;;
75052;SDS011;63630;50.142;14.076;2022-11-02T05:36:47;6.90;;;3.72;;
75052;SDS011;63630;50.142;14.076;2022-11-02T05:39:15;6.97;;;4.38;;
75052;SDS011;63630;50.142;14.076;2022-11-02T05:41:43;6.80;;;4.20;;
75052;SDS011;63630;50.142;14.076;2022-11-02T05:44:11;7.28;;;4.13;;
75052;SDS011;63630;50.142;14.076;2022-11-02T05:46:36;6.83;;;4.50;;
75052;SDS011;63630;50.142;14.076;2022-11-02T05:49:03;8.52;;;4.20;;
75052;SDS011;63630;50.142;14.076;2022-11-02T05:51:29;5.97;;;4.03;;
75052;SDS011;63630;50.142;14.076;2022-11-02T05:53:54;6.13;;;3.97;;
75052;SDS011;63630;50.142;14.076;2022-11-02T05:56:19;7.17;;;3.57;;
75052;SDS011;63630;50.142;14.076;2022-11-02T05:58:45;6.25;;;4.18;;
75052;SDS011;63630;50.142;14.076;2022-11-02T06:01:10;5.70;;;3.70;;
75052;SDS011;63630;50.142;14.076;2022-11-02T06:03:36;6.60;;;4.15;;
75052;SDS011;63630;50.142;14.076;2022-11-02T06:06:02;7.47;;;3.90;;
75052;SDS011;63630;50.142;14.076;2022-11-02T06:08:30;6.43;;;4.18;;
75052;SDS011;63630;50.142;14.076;2022-11-02T06:11:02;5.97;;;3.80;;
75052;SDS011;63630;50.142;14.076;2022-11-02T06:13:34;5.38;;;3.65;;
75052;SDS011;63630;50.142;14.076;2022-11-02T06:16:02;6.40;;;4.05;;
75052;SDS011;63630;50.142;14.076;2022-11-02T06:18:29;6.13;;;4.15;;
75052;SDS011;63630;50.142;14.076;2022-11-02T06:20:57;7.10;;;4.15;;
75052;SDS011;63630;50.142;14.076;2022-11-02T06:23:23;7.20;;;4.25;;
75052;SDS011;63630;50.142;14.076;2022-11-02T06:25:52;6.45;;;4.65;;
75052;SDS011;63630;50.142;14.076;2022-11-02T06:28:19;7.05;;;4.28;;
75052;SDS011;63630;50.142;14.076;2022-11-02T06:30:45;8.25;;;4.57;;
75052;SDS011;63630;50.142;14.076;2022-11-02T06:33:11;6.53;;;4.10;;
75052;SDS011;63630;50.142;14.076;2022-11-02T06:35:44;5.63;;;3.80;;
75052;SDS011;63630;50.142;14.076;2022-11-02T06:38:15;7.03;;;3.88;;
75052;SDS011;63630;50.142;14.076;2022-11-02T06:40:41;7.43;;;4.13;;
75052;SDS011;63630;50.142;14.076;2022-11-02T06:43:07;6.60;;;4.40;;
75052;SDS011;63630;50.142;14.076;2022-11-02T06:45:36;7.75;;;4.30;;
75052;SDS011;63630;50.142;14.076;2022-11-02T06:48:06;13.63;;;5.45;;
75052;SDS011;63630;50.142;14.076;2022-11-02T06:50:31;18.77;;;4.70;;
75052;SDS011;63630;50.142;14.076;2022-11-02T06:52:56;11.83;;;4.20;;
75052;SDS011;63630;50.142;14.076;2022-11-02T06:55:24;10.00;;;4.57;;
75052;SDS011;63630;50.142;14.076;2022-11-02T06:57:52;14.07;;;4.80;;
75052;SDS011;63630;50.142;14.076;2022-11-02T07:00:17;13.48;;;5.00;;
75052;SDS011;63630;50.142;14.076;2022-11-02T07:02:45;9.88;;;4.63;;
75052;SDS011;63630;50.142;14.076;2022-11-02T07:05:11;11.45;;;4.88;;
75052;SDS011;63630;50.142;14.076;2022-11-02T07:07:36;11.70;;;4.50;;
75052;SDS011;63630;50.142;14.076;2022-11-02T07:10:02;10.77;;;4.90;;
75052;SDS011;63630;50.142;14.076;2022-11-02T07:12:33;7.38;;;4.45;;
75052;SDS011;63630;50.142;14.076;2022-11-02T07:14:58;8.20;;;5.07;;
75052;SDS011;63630;50.142;14.076;2022-11-02T07:17:23;5.97;;;4.47;;
75052;SDS011;63630;50.142;14.076;2022-11-02T07:19:51;9.27;;;4.90;;
75052;SDS011;63630;50.142;14.076;2022-11-02T07:22:16;7.72;;;4.15;;
75052;SDS011;63630;50.142;14.076;2022-11-02T07:24:46;7.80;;;4.72;;
75052;SDS011;63630;50.142;14.076;2022-11-02T07:27:16;7.63;;;4.28;;
75052;SDS011;63630;50.142;14.076;2022-11-02T07:29:41;7.75;;;5.00;;
75052;SDS011;63630;50.142;14.076;2022-11-02T07:32:07;8.77;;;4.77;;
75052;SDS011;63630;50.142;14.076;2022-11-02T07:34:32;8.95;;;4.38;;
75052;SDS011;63630;50.142;14.076;2022-11-02T07:36:58;8.32;;;4.20;;
75052;SDS011;63630;50.142;14.076;2022-11-02T07:39:26;7.90;;;4.40;;
75052;SDS011;63630;50.142;14.076;2022-11-02T07:41:51;6.35;;;4.05;;
75052;SDS011;63630;50.142;14.076;2022-11-02T07:44:16;8.90;;;4.37;;
75052;SDS011;63630;50.142;14.076;2022-11-02T07:46:41;7.00;;;4.00;;
75052;SDS011;63630;50.142;14.076;2022-11-02T07:49:07;7.73;;;4.37;;
75052;SDS011;63630;50.142;14.076;2022-11-02T07:51:35;8.03;;;4.20;;
75052;SDS011;63630;50.142;14.076;2022-11-02T07:54:05;5.88;;;3.67;;
75052;SDS011;63630;50.142;14.076;2022-11-02T07:56:30;8.25;;;4.25;;
75052;SDS011;63630;50.142;14.076;2022-11-02T07:58:55;6.70;;;3.87;;
75052;SDS011;63630;50.142;14.076;2022-11-02T08:01:23;7.93;;;3.90;;
75052;SDS011;63630;50.142;14.076;2022-11-02T08:03:48;6.70;;;4.20;;
75052;SDS011;63630;50.142;14.076;2022-11-02T08:06:13;6.50;;;3.90;;
75052;SDS011;63630;50.142;14.076;2022-11-02T08:08:39;7.33;;;4.13;;
75052;SDS011;63630;50.142;14.076;2022-11-02T08:11:05;7.97;;;3.80;;
75052;SDS011;63630;50.142;14.076;2022-11-02T08:13:31;5.65;;;3.17;;
75052;SDS011;63630;50.142;14.076;2022-11-02T08:15:59;7.03;;;3.45;;
75052;SDS011;63630;50.142;14.076;2022-11-02T08:18:25;5.35;;;3.60;;
75052;SDS011;63630;50.142;14.076;2022-11-02T08:20:57;5.70;;;3.75;;
75052;SDS011;63630;50.142;14.076;2022-11-02T08:25:52;6.22;;;3.70;;
75052;SDS011;63630;50.142;14.076;2022-11-02T08:28:23;6.18;;;3.53;;
75052;SDS011;63630;50.142;14.076;2022-11-02T08:33:23;6.82;;;3.67;;
75052;SDS011;63630;50.142;14.076;2022-11-02T08:35:48;7.30;;;3.33;;
75052;SDS011;63630;50.142;14.076;2022-11-02T08:38:16;6.40;;;3.55;;
75052;SDS011;63630;50.142;14.076;2022-11-02T08:40:42;6.25;;;3.30;;
75052;SDS011;63630;50.142;14.076;2022-11-02T08:43:09;5.45;;;3.25;;
75052;SDS011;63630;50.142;14.076;2022-11-02T08:45:41;6.55;;;3.70;;
75052;SDS011;63630;50.142;14.076;2022-11-02T08:48:11;7.35;;;3.38;;
75052;SDS011;63630;50.142;14.076;2022-11-02T08:50:37;7.18;;;3.70;;
75052;SDS011;63630;50.142;14.076;2022-11-02T08:53:05;6.45;;;3.20;;
75052;SDS011;63630;50.142;14.076;2022-11-02T08:55:31;4.95;;;3.30;;
75052;SDS011;63630;50.142;14.076;2022-11-02T08:57:57;7.75;;;3.88;;
75052;SDS011;63630;50.142;14.076;2022-11-02T09:00:27;5.07;;;3.20;;
75052;SDS011;63630;50.142;14.076;2022-11-02T09:02:57;6.25;;;3.20;;
75052;SDS011;63630;50.142;14.076;2022-11-02T09:05:29;5.22;;;3.30;;
75052;SDS011;63630;50.142;14.076;2022-11-02T09:07:59;4.43;;;2.67;;
75052;SDS011;63630;50.142;14.076;2022-11-02T09:10:27;4.97;;;2.90;;
75052;SDS011;63630;50.142;14.076;2022-11-02T09:13:00;5.45;;;3.10;;
75052;SDS011;63630;50.142;14.076;2022-11-02T09:15:29;5.60;;;2.97;;
75052;SDS011;63630;50.142;14.076;2022-11-02T09:17:55;6.55;;;3.17;;
75052;SDS011;63630;50.142;14.076;2022-11-02T09:20:22;9.83;;;3.67;;
75052;SDS011;63630;50.142;14.076;2022-11-02T09:22:50;7.22;;;3.08;;
75052;SDS011;63630;50.142;14.076;2022-11-02T09:25:16;5.65;;;2.95;;
75052;SDS011;63630;50.142;14.076;2022-11-02T09:27:41;3.95;;;2.47;;
75052;SDS011;63630;50.142;14.076;2022-11-02T09:30:09;5.53;;;3.00;;
75052;SDS011;63630;50.142;14.076;2022-11-02T09:32:38;5.05;;;3.00;;
75052;SDS011;63630;50.142;14.076;2022-11-02T09:35:05;3.85;;;2.60;;
75052;SDS011;63630;50.142;14.076;2022-11-02T09:37:33;5.10;;;2.47;;
75052;SDS011;63630;50.142;14.076;2022-11-02T09:39:58;3.95;;;2.72;;
75052;SDS011;63630;50.142;14.076;2022-11-02T09:45:17;5.80;;;3.65;;
75052;SDS011;63630;50.142;14.076;2022-11-02T09:47:49;5.30;;;2.60;;
75052;SDS011;63630;50.142;14.076;2022-11-02T09:50:33;5.32;;;2.72;;
75052;SDS011;63630;50.142;14.076;2022-11-02T09:53:17;3.40;;;2.22;;
75052;SDS011;63630;50.142;14.076;2022-11-02T09:55:48;5.47;;;2.50;;
75052;SDS011;63630;50.142;14.076;2022-11-02T09:58:18;4.70;;;2.40;;
75052;SDS011;63630;50.142;14.076;2022-11-02T10:00:52;4.57;;;2.60;;
75052;SDS011;63630;50.142;14.076;2022-11-02T10:06:18;4.75;;;1.92;;
75052;SDS011;63630;50.142;14.076;2022-11-02T10:11:29;4.38;;;2.25;;
75052;SDS011;63630;50.142;14.076;2022-11-02T10:14:29;5.05;;;2.05;;
75052;SDS011;63630;50.142;14.076;2022-11-02T10:19:27;5.00;;;2.40;;
75052;SDS011;63630;50.142;14.076;2022-11-02T10:21:55;5.45;;;2.10;;
75052;SDS011;63630;50.142;14.076;2022-11-02T10:26:50;4.87;;;2.30;;
75052;SDS011;63630;50.142;14.076;2022-11-02T10:32:08;4.32;;;2.45;;
75052;SDS011;63630;50.142;14.076;2022-11-02T10:34:36;8.10;;;3.00;;
75052;SDS011;63630;50.142;14.076;2022-11-02T10:47:53;3.90;;;1.73;;
75052;SDS011;63630;50.142;14.076;2022-11-02T10:50:35;5.40;;;1.70;;
75052;SDS011;63630;50.142;14.076;2022-11-02T10:53:10;4.15;;;2.00;;
75052;SDS011;63630;50.142;14.076;2022-11-02T10:55:42;2.80;;;1.60;;
75052;SDS011;63630;50.142;14.076;2022-11-02T10:58:16;4.90;;;1.80;;
75052;SDS011;63630;50.142;14.076;2022-11-02T11:00:45;4.75;;;1.90;;
75052;SDS011;63630;50.142;14.076;2022-11-02T11:03:13;5.43;;;1.77;;
75052;SDS011;63630;50.142;14.076;2022-11-02T11:08:46;6.10;;;2.00;;
75052;SDS011;63630;50.142;14.076;2022-11-02T11:11:27;5.85;;;1.60;;
75052;SDS011;63630;50.142;14.076;2022-11-02T11:13:56;4.93;;;1.60;;
75052;SDS011;63630;50.142;14.076;2022-11-02T11:19:04;5.00;;;1.40;;
75052;SDS011;63630;50.142;14.076;2022-11-02T11:21:45;7.60;;;1.95;;
75052;SDS011;63630;50.142;14.076;2022-11-02T11:26:45;5.43;;;2.63;;
75052;SDS011;63630;50.142;14.076;2022-11-02T11:29:23;5.93;;;1.48;;
75052;SDS011;63630;50.142;14.076;2022-11-02T11:31:48;4.47;;;1.83;;
75052;SDS011;63630;50.142;14.076;2022-11-02T11:34:24;4.47;;;1.52;;
75052;SDS011;63630;50.142;14.076;2022-11-02T11:36:52;7.28;;;1.90;;
75052;SDS011;63630;50.142;14.076;2022-11-02T11:41:54;5.30;;;2.15;;
75052;SDS011;63630;50.142;14.076;2022-11-02T11:44:23;4.82;;;1.55;;
75052;SDS011;63630;50.142;14.076;2022-11-02T11:46:51;7.75;;;1.52;;
75052;SDS011;63630;50.142;14.076;2022-11-02T11:51:51;4.88;;;1.20;;
75052;SDS011;63630;50.142;14.076;2022-11-02T11:56:57;4.13;;;1.70;;
75052;SDS011;63630;50.142;14.076;2022-11-02T12:01:59;3.00;;;1.10;;
75052;SDS011;63630;50.142;14.076;2022-11-02T12:04:29;3.90;;;1.10;;
75052;SDS011;63630;50.142;14.076;2022-11-02T12:12:25;5.78;;;1.50;;
75052;SDS011;63630;50.142;14.076;2022-11-02T12:21:20;3.55;;;1.30;;
75052;SDS011;63630;50.142;14.076;2022-11-02T12:40:24;2.45;;;0.88;;
75052;SDS011;63630;50.142;14.076;2022-11-02T12:48:21;4.57;;;1.42;;
75052;SDS011;63630;50.142;14.076;2022-11-02T12:50:57;3.50;;;0.90;;
75052;SDS011;63630;50.142;14.076;2022-11-02T12:53:35;4.40;;;1.50;;
75052;SDS011;63630;50.142;14.076;2022-11-02T12:56:10;2.80;;;1.17;;
75052;SDS011;63630;50.142;14.076;2022-11-02T12:58:42;2.67;;;1.00;;
75052;SDS011;63630;50.142;14.076;2022-11-02T13:01:53;4.32;;;1.65;;
75052;SDS011;63630;50.142;14.076;2022-11-02T13:04:17;2.92;;;1.13;;
75052;SDS011;63630;50.142;14.076;2022-11-02T13:06:49;4.82;;;1.23;;
75052;SDS011;63630;50.142;14.076;2022-11-02T13:09:23;4.47;;;1.10;;
75052;SDS011;63630;50.142;14.076;2022-11-02T13:12:11;2.63;;;1.10;;
75052;SDS011;63630;50.142;14.076;2022-11-02T13:14:40;4.82;;;1.15;;
75052;SDS011;63630;50.142;14.076;2022-11-02T13:17:17;1.50;;;1.00;;
75052;SDS011;63630;50.142;14.076;2022-11-02T13:19:46;2.97;;;1.00;;
75052;SDS011;63630;50.142;14.076;2022-11-02T13:22:17;2.55;;;1.00;;
75052;SDS011;63630;50.142;14.076;2022-11-02T13:24:49;3.00;;;1.02;;
75052;SDS011;63630;50.142;14.076;2022-11-02T13:27:34;3.50;;;1.42;;
75052;SDS011;63630;50.142;14.076;2022-11-02T13:30:04;4.30;;;1.30;;
75052;SDS011;63630;50.142;14.076;2022-11-02T13:33:00;3.75;;;1.48;;
75052;SDS011;63630;50.142;14.076;2022-11-02T13:35:26;3.28;;;1.13;;
75052;SDS011;63630;50.142;14.076;2022-11-02T13:38:22;5.22;;;1.40;;
75052;SDS011;63630;50.142;14.076;2022-11-02T13:46:28;3.55;;;1.00;;
75052;SDS011;63630;50.142;14.076;2022-11-02T13:49:18;2.90;;;1.60;;
75052;SDS011;63630;50.142;14.076;2022-11-02T13:51:53;5.20;;;1.35;;
75052;SDS011;63630;50.142;14.076;2022-11-02T13:54:26;6.03;;;1.48;;
75052;SDS011;63630;50.142;14.076;2022-11-02T13:56:55;5.47;;;1.38;;
75052;SDS011;63630;50.142;14.076;2022-11-02T13:59:26;4.65;;;1.85;;
75052;SDS011;63630;50.142;14.076;2022-11-02T14:01:56;4.43;;;1.30;;
75052;SDS011;63630;50.142;14.076;2022-11-02T14:04:27;4.03;;;1.42;;
75052;SDS011;63630;50.142;14.076;2022-11-02T14:07:03;5.55;;;1.40;;
75052;SDS011;63630;50.142;14.076;2022-11-02T14:09:36;4.13;;;1.60;;
75052;SDS011;63630;50.142;14.076;2022-11-02T14:12:24;4.68;;;1.40;;
75052;SDS011;63630;50.142;14.076;2022-11-02T14:30:47;2.83;;;1.17;;
75052;SDS011;63630;50.142;14.076;2022-11-02T14:35:49;3.33;;;1.05;;
75052;SDS011;63630;50.142;14.076;2022-11-02T14:38:43;5.05;;;1.25;;
75052;SDS011;63630;50.142;14.076;2022-11-02T14:46:54;3.80;;;1.33;;
75052;SDS011;63630;50.142;14.076;2022-11-02T14:52:00;3.58;;;1.30;;
75052;SDS011;63630;50.142;14.076;2022-11-02T14:54:27;3.28;;;1.10;;
75052;SDS011;63630;50.142;14.076;2022-11-02T14:59:31;4.60;;;1.42;;
75052;SDS011;63630;50.142;14.076;2022-11-02T15:02:01;4.70;;;1.10;;
75052;SDS011;63630;50.142;14.076;2022-11-02T15:04:30;4.10;;;1.33;;
75052;SDS011;63630;50.142;14.076;2022-11-02T15:06:58;2.42;;;1.30;;
75052;SDS011;63630;50.142;14.076;2022-11-02T15:12:29;3.55;;;1.20;;
75052;SDS011;63630;50.142;14.076;2022-11-02T15:17:53;4.13;;;1.25;;
75052;SDS011;63630;50.142;14.076;2022-11-02T15:20:25;2.63;;;1.13;;
75052;SDS011;63630;50.142;14.076;2022-11-02T15:22:53;4.68;;;1.20;;
75052;SDS011;63630;50.142;14.076;2022-11-02T15:28:04;3.40;;;1.30;;
75052;SDS011;63630;50.142;14.076;2022-11-02T15:30:37;3.90;;;1.40;;
75052;SDS011;63630;50.142;14.076;2022-11-02T15:33:18;2.17;;;1.13;;
75052;SDS011;63630;50.142;14.076;2022-11-02T15:35:50;4.07;;;1.40;;
75052;SDS011;63630;50.142;14.076;2022-11-02T15:38:18;3.25;;;1.17;;
75052;SDS011;63630;50.142;14.076;2022-11-02T15:40:52;3.33;;;1.17;;
75052;SDS011;63630;50.142;14.076;2022-11-02T15:57:21;3.08;;;1.10;;
75052;SDS011;63630;50.142;14.076;2022-11-02T16:00:00;2.35;;;1.20;;
75052;SDS011;63630;50.142;14.076;2022-11-02T16:02:57;3.60;;;1.20;;
75052;SDS011;63630;50.142;14.076;2022-11-02T16:05:20;3.00;;;1.40;;
75052;SDS011;63630;50.142;14.076;2022-11-02T16:07:50;3.75;;;1.70;;
75052;SDS011;63630;50.142;14.076;2022-11-02T16:10:22;5.05;;;1.60;;
75052;SDS011;63630;50.142;14.076;2022-11-02T16:13:41;10.95;;;1.75;;
75052;SDS011;63630;50.142;14.076;2022-11-02T16:16:05;6.28;;;1.30;;
75052;SDS011;63630;50.142;14.076;2022-11-02T16:18:36;5.30;;;1.92;;
75052;SDS011;63630;50.142;14.076;2022-11-02T16:21:03;4.68;;;1.30;;
75052;SDS011;63630;50.142;14.076;2022-11-02T16:23:38;6.03;;;2.00;;
75052;SDS011;63630;50.142;14.076;2022-11-02T16:26:07;3.78;;;1.50;;
75052;SDS011;63630;50.142;14.076;2022-11-02T16:28:49;4.88;;;1.27;;
75052;SDS011;63630;50.142;14.076;2022-11-02T16:31:22;3.80;;;1.38;;
75052;SDS011;63630;50.142;14.076;2022-11-02T16:34:37;4.97;;;1.70;;
75052;SDS011;63630;50.142;14.076;2022-11-02T16:36:48;3.30;;;1.40;;
75052;SDS011;63630;50.142;14.076;2022-11-02T16:39:18;4.13;;;1.60;;
75052;SDS011;63630;50.142;14.076;2022-11-02T16:41:56;3.30;;;1.40;;
75052;SDS011;63630;50.142;14.076;2022-11-02T16:44:30;3.72;;;1.40;;
75052;SDS011;63630;50.142;14.076;2022-11-02T16:46:59;3.35;;;1.30;;
75052;SDS011;63630;50.142;14.076;2022-11-02T16:54:43;3.70;;;1.40;;
75052;SDS011;63630;50.142;14.076;2022-11-02T16:59:34;2.13;;;1.20;;
75052;SDS011;63630;50.142;14.076;2022-11-02T17:02:01;2.78;;;1.05;;
75052;SDS011;63630;50.142;14.076;2022-11-02T17:04:29;3.97;;;1.33;;
75052;SDS011;63630;50.142;14.076;2022-11-02T17:07:40;3.00;;;1.42;;
75052;SDS011;63630;50.142;14.076;2022-11-02T17:09:49;6.28;;;2.10;;
75052;SDS011;63630;50.142;14.076;2022-11-02T17:12:18;6.72;;;1.70;;
75052;SDS011;63630;50.142;14.076;2022-11-02T17:14:47;4.93;;;1.25;;
75052;SDS011;63630;50.142;14.076;2022-11-02T17:19:54;9.93;;;1.88;;
75052;SDS011;63630;50.142;14.076;2022-11-02T17:24:45;2.67;;;1.20;;
75052;SDS011;63630;50.142;14.076;2022-11-02T17:27:22;4.70;;;1.60;;
75052;SDS011;63630;50.142;14.076;2022-11-02T17:29:50;4.97;;;1.80;;
75052;SDS011;63630;50.142;14.076;2022-11-02T17:32:20;20.58;;;3.85;;
75052;SDS011;63630;50.142;14.076;2022-11-02T17:34:52;6.20;;;1.98;;
75052;SDS011;63630;50.142;14.076;2022-11-02T17:37:22;10.88;;;2.42;;
75052;SDS011;63630;50.142;14.076;2022-11-02T17:39:50;4.35;;;1.80;;
75052;SDS011;63630;50.142;14.076;2022-11-02T17:42:19;8.30;;;1.90;;
75052;SDS011;63630;50.142;14.076;2022-11-02T17:45:22;9.32;;;2.08;;
75052;SDS011;63630;50.142;14.076;2022-11-02T17:47:51;7.15;;;2.03;;
75052;SDS011;63630;50.142;14.076;2022-11-02T17:50:17;7.80;;;2.10;;